KCXO/CXO METAR and TAF weather

Enter ICAO airport designator
Station Type Date Time Source
KCXO METAR 2019/08/21 09:53 UTC NOAA

KCXO 210953Z AUTO 00000KT 7SM CLR 23/22 A3001 RMK AO2 SLP159 T02330222


Station Type Date Time Source
KCXO Decoded METAR 2019/08/21 09:53 UTC NOAA

Station name not available
Aug 21, 2019 - 05:53 AM EDT / 2019.08.21 0953 UTC
Wind: Calm:0
Visibility: 7 mile(s):0
Sky conditions: clear
Temperature: 73.9 F (23.3 C)
Dew Point: 72.0 F (22.2 C)
Relative Humidity: 93%
Pressure (altimeter): 30.01 in. Hg (1016 hPa)
ob: KCXO 210953Z AUTO 00000KT 7SM CLR 23/22 A3001 RMK AO2 SLP159 T02330222
cycle: 10

Station Type Date Time Source
KCXO TAF 2019/08/21 06:22 UTC NOAA

TAF KCXO 210520Z 2106/2206 00000KT P6SM SKC
FM211400 22004KT P6SM FEW025 SCT250
FM212000 16004KT P6SM VCSH SCT050
FM220100 14005KT P6SM SCT250

Example: see airport list